الصفحة الرئيسية
METAR-TAF:

METAR-TAF

مطار :

مايدوغوري, نيجيريا

دائرة عرض: 11-51N, خط طول: 013-05E, ارتفاع: 354 متر

METAR: مفقودة

زمن: 09:22 (08:22 UTC)

توقعات

تاريخ ووقت الإصدار 4ساعات و 42 دقيقة قبل الساعة 03:40UTC
التوقعات صالحة من19 الساعة 06 UTC إلى 20 الساعة 12 UTC
ريح 10 عقدة من الشرق/الشمال الشرقي
الرؤية: 7000 متر
مؤقت
من 19 الساعة 06 UTC إلى 19 الساعة 12 UTC
الرؤية: 1500 متر
العجاج

TAF: DNMA 190340Z 1906/2012 07010KT 7000 NSW NSC TEMPO 1906/1912 1500 HZ

أرصاد الطقس والتوقعات من أكثر من 4000 مطار (تقارير الطقس للمطار METAR والتنبؤ بالطقس بالمطارTAF).

المحطات المتاحة هي النقط الصفراء والحمراء على الخريطة.

حرك المؤشر فوق النقطة لمعرفة اسم المحطة.

ثم انقر لمعرفة أرصاد وتوقعات الطقس.

لتغيير الخارطة: اضغط على الأزرار الخضراء مع رمز الصليب الأسود للتكبير. على الزر الأخضر مع شرطة للتصغير، أو على الأسهم الخضراء للخرائط المجاورة.


METAR-TAF: